Archival Weather

NSFA McMurdo Sound

NSFA McMurdo Sound, Antarctica (NZCM)

Report from: Friday, September 23, 2022 6:55 AM UTC
Current time: Sunday, December 4, 2022 11:09 AM UTC

Current weather
Weather history
Weather forecast

Present weatherLight snow, mist
Temperature-20.0°C (-4.0°F)
Wind chill-26.8°C (-16.3°F)
Dew point-24.6°C (-12.3°F)
Winds 5 kts (2.6 m/s, 5.8 mph) Southeast (130°)
Visibility2.1 mi. (3.3 km)
Clouds Ceiling: Overcast 1,900 ft. (579 m)
Altimeter28.64 in.Hg (970 mB)
Relative humidity67 %
Density altitude-2,930 ft. (-893 m)
Sea-level pressure107.1 kPa (1071 mB, 31.61 in.Hg)
Remarks Fully automated report
System requires maintenance
Automated weather observing station with precipitation discriminator
Visibility
Flight conditions Instrument Meteorological Conditions
Raw dataNZCM 230655Z AUTO 13005KT 3300 -SN BR OVC019 M20/M25 A2864 RMK AO2 VIS 2200V6000 SLP705 T12001246 $
An error has occurred. This application may no longer respond until reloaded. Reload 🗙